createdAt,value
2019-03-24T00:00:31.468Z,6.77
2019-03-24T00:03:00.315Z,7.23
2019-03-24T00:05:29.081Z,6.43
2019-03-24T00:07:57.932Z,6.23
2019-03-24T00:10:26.700Z,7.33
2019-03-24T00:12:55.525Z,6.70
2019-03-24T00:15:26.566Z,6.93
2019-03-24T00:17:54.868Z,7.27
2019-03-24T00:20:23.611Z,5.83
2019-03-24T00:22:52.499Z,6.97
2019-03-24T00:25:21.353Z,7.00
2019-03-24T00:27:50.171Z,7.03
2019-03-24T00:30:19.059Z,6.00
2019-03-24T00:32:47.876Z,6.00
2019-03-24T00:35:16.692Z,6.20
2019-03-24T00:37:45.570Z,6.80
2019-03-24T00:40:14.644Z,5.80
2019-03-24T00:42:43.771Z,6.00
2019-03-24T00:45:12.795Z,6.20
2019-03-24T00:47:41.553Z,6.07
2019-03-24T00:50:10.523Z,7.90
2019-03-24T00:52:39.327Z,5.83
2019-03-24T00:55:08.552Z,6.73
2019-03-24T00:57:37.755Z,7.40
2019-03-24T01:00:09.063Z,7.93
2019-03-24T01:02:38.796Z,8.67
2019-03-24T01:05:08.131Z,8.00
2019-03-24T01:07:37.013Z,9.23
2019-03-24T01:10:07.787Z,9.30
2019-03-24T01:12:36.558Z,8.87
2019-03-24T01:15:07.126Z,9.93
2019-03-24T01:17:36.561Z,9.60
2019-03-24T01:20:07.492Z,10.30
2019-03-24T01:22:36.595Z,9.70
2019-03-24T01:25:05.926Z,10.23
2019-03-24T01:27:34.858Z,9.90
2019-03-24T01:30:05.596Z,7.97
2019-03-24T01:32:34.406Z,9.77
2019-03-24T01:35:03.428Z,10.37
2019-03-24T01:37:32.218Z,8.90
2019-03-24T01:40:00.971Z,9.80
2019-03-24T01:42:29.741Z,9.73
2019-03-24T01:44:58.603Z,8.43
2019-03-24T01:47:27.410Z,8.80
2019-03-24T01:49:56.235Z,8.60
2019-03-24T01:52:25.115Z,9.20
2019-03-24T01:54:53.859Z,8.57
2019-03-24T01:57:22.675Z,9.30
2019-03-24T01:59:51.470Z,9.50
2019-03-24T02:02:20.237Z,8.50
2019-03-24T02:04:49.202Z,8.20
2019-03-24T02:07:18.035Z,9.23
2019-03-24T02:09:46.780Z,9.63
2019-03-24T02:12:15.511Z,8.23
2019-03-24T02:14:44.388Z,9.23
2019-03-24T02:17:13.200Z,8.70
2019-03-24T02:19:42.009Z,8.97
2019-03-24T02:22:10.886Z,8.13
2019-03-24T02:24:39.673Z,8.70
2019-03-24T02:27:08.483Z,7.87
2019-03-24T02:29:37.292Z,8.70
2019-03-24T02:32:06.127Z,9.63
2019-03-24T02:34:34.882Z,9.17
2019-03-24T02:37:03.766Z,7.40
2019-03-24T02:39:32.540Z,7.60
2019-03-24T02:42:01.301Z,6.57
2019-03-24T02:44:30.090Z,7.73
2019-03-24T02:46:58.924Z,6.27
2019-03-24T02:49:27.716Z,7.30
2019-03-24T02:51:56.574Z,7.10
2019-03-24T02:54:25.325Z,6.07
2019-03-24T02:56:54.067Z,6.63
2019-03-24T02:59:22.981Z,6.73
2019-03-24T03:01:51.756Z,7.07
2019-03-24T03:04:20.562Z,6.70
2019-03-24T03:06:50.112Z,6.73
2019-03-24T03:09:18.944Z,7.00
2019-03-24T03:11:47.707Z,5.80
2019-03-24T03:14:16.512Z,6.50
2019-03-24T03:16:45.281Z,6.17
2019-03-24T03:19:14.077Z,6.23
2019-03-24T03:21:42.892Z,5.47
2019-03-24T03:24:11.652Z,6.13
2019-03-24T03:26:40.401Z,6.37
2019-03-24T03:29:09.225Z,4.90
2019-03-24T03:31:38.042Z,7.53
2019-03-24T03:34:06.848Z,5.73
2019-03-24T03:36:35.707Z,6.13
2019-03-24T03:39:06.408Z,5.97
2019-03-24T03:41:35.320Z,6.93
2019-03-24T03:44:04.258Z,5.80
2019-03-24T03:46:33.104Z,5.10
2019-03-24T03:49:01.836Z,5.77
2019-03-24T03:51:30.623Z,6.17
2019-03-24T03:53:59.539Z,4.87
2019-03-24T03:56:28.318Z,5.50
2019-03-24T03:58:57.099Z,5.70
2019-03-24T04:01:25.932Z,5.90
2019-03-24T04:03:54.670Z,4.73
2019-03-24T04:06:23.523Z,5.97
2019-03-24T04:08:53.030Z,5.67
2019-03-24T04:11:21.820Z,5.37
2019-03-24T04:13:50.692Z,5.23
2019-03-24T04:16:20.733Z,4.90
2019-03-24T04:18:50.092Z,6.97
2019-03-24T04:21:19.028Z,4.83
2019-03-24T04:23:47.793Z,6.30
2019-03-24T04:26:16.507Z,4.80
2019-03-24T04:28:45.396Z,5.00
2019-03-24T04:31:14.139Z,5.07
2019-03-24T04:33:42.945Z,4.93
2019-03-24T04:36:11.796Z,5.83
2019-03-24T04:38:40.581Z,5.00
2019-03-24T04:41:09.364Z,4.17
2019-03-24T04:43:38.105Z,5.47
2019-03-24T04:46:06.915Z,4.37
2019-03-24T04:48:36.267Z,4.57
2019-03-24T04:51:05.237Z,4.40
2019-03-24T04:53:34.015Z,3.67
2019-03-24T04:56:02.740Z,5.30
2019-03-24T04:58:31.603Z,5.63
2019-03-24T05:01:00.333Z,4.60
2019-03-24T05:03:29.146Z,5.10
2019-03-24T05:05:59.660Z,4.27
2019-03-24T05:08:28.780Z,4.77
2019-03-24T05:10:58.332Z,3.57
2019-03-24T05:13:27.202Z,5.03
2019-03-24T05:15:56.045Z,4.20
2019-03-24T05:18:24.862Z,4.47
2019-03-24T05:20:53.723Z,3.80
2019-03-24T05:23:22.546Z,5.17
2019-03-24T05:25:51.363Z,4.70
2019-03-24T05:28:20.211Z,4.47
2019-03-24T05:30:49.027Z,4.30
2019-03-24T05:33:17.827Z,3.70
2019-03-24T05:35:46.732Z,4.20
2019-03-24T05:38:15.478Z,4.03
2019-03-24T05:40:44.300Z,4.40
2019-03-24T05:43:13.219Z,5.03
2019-03-24T05:45:42.003Z,4.43
2019-03-24T05:48:10.734Z,4.00
2019-03-24T05:50:39.595Z,4.40
2019-03-24T05:53:08.356Z,4.70
2019-03-24T05:55:37.180Z,3.50
2019-03-24T05:58:05.987Z,3.67
2019-03-24T06:00:34.803Z,4.60
2019-03-24T06:03:03.638Z,3.40
2019-03-24T06:05:32.490Z,4.50
2019-03-24T06:08:01.308Z,4.10
2019-03-24T06:10:30.128Z,4.97
2019-03-24T06:12:58.932Z,4.17
2019-03-24T06:15:27.755Z,4.83
2019-03-24T06:17:56.509Z,3.40
2019-03-24T06:20:25.292Z,4.70
2019-03-24T06:22:54.115Z,4.93
2019-03-24T06:25:22.939Z,5.07
2019-03-24T06:27:51.820Z,4.87
2019-03-24T06:30:20.588Z,4.53
2019-03-24T06:32:49.348Z,5.13
2019-03-24T06:35:18.182Z,6.07
2019-03-24T06:37:46.988Z,4.57
2019-03-24T06:40:15.748Z,4.77
2019-03-24T06:42:44.644Z,4.57
2019-03-24T06:45:13.483Z,4.80
2019-03-24T06:47:42.302Z,4.87
2019-03-24T06:50:11.380Z,4.00
2019-03-24T06:52:40.220Z,4.63
2019-03-24T06:55:09.365Z,4.23
2019-03-24T06:57:38.180Z,5.00
2019-03-24T07:00:09.131Z,4.63
2019-03-24T07:02:37.883Z,4.40
2019-03-24T07:05:07.023Z,3.97
2019-03-24T07:07:35.732Z,3.90
2019-03-24T07:10:08.906Z,5.90
2019-03-24T07:12:37.834Z,5.43
2019-03-24T07:15:10.327Z,4.83
2019-03-24T07:17:39.175Z,3.73
2019-03-24T07:20:08.693Z,4.20
2019-03-24T07:22:38.643Z,4.43
2019-03-24T07:25:07.460Z,5.17
2019-03-24T07:27:36.363Z,4.47
2019-03-24T07:30:09.326Z,4.57
2019-03-24T07:32:38.075Z,6.70
2019-03-24T07:35:07.685Z,5.37
2019-03-24T07:37:36.541Z,4.80
2019-03-24T07:40:08.485Z,4.70
2019-03-24T07:42:37.403Z,4.33
2019-03-24T07:45:08.220Z,4.70
2019-03-24T07:47:36.978Z,3.70
2019-03-24T07:50:08.196Z,3.97
2019-03-24T07:52:37.046Z,4.73
2019-03-24T07:55:07.506Z,5.20
2019-03-24T07:57:36.315Z,4.53
2019-03-24T08:00:07.485Z,4.10
2019-03-24T08:02:36.308Z,3.90
2019-03-24T08:05:05.991Z,4.43
2019-03-24T08:07:34.770Z,3.63
2019-03-24T08:10:05.700Z,4.20
2019-03-24T08:12:34.573Z,4.10
2019-03-24T08:15:04.078Z,4.37
2019-03-24T08:17:32.892Z,3.87
2019-03-24T08:20:01.692Z,4.30
2019-03-24T08:22:30.539Z,4.27
2019-03-24T08:24:59.300Z,4.77
2019-03-24T08:27:28.194Z,4.23
2019-03-24T08:29:57.019Z,3.67
2019-03-24T08:32:25.845Z,4.13
2019-03-24T08:34:54.652Z,3.40
2019-03-24T08:37:23.500Z,5.00
2019-03-24T08:39:52.347Z,3.67
2019-03-24T08:42:21.212Z,4.23
2019-03-24T08:44:50.036Z,4.17
2019-03-24T08:47:18.829Z,3.57
2019-03-24T08:49:47.630Z,3.63
2019-03-24T08:52:16.454Z,4.93
2019-03-24T08:54:45.228Z,5.03
2019-03-24T08:57:14.026Z,4.73
2019-03-24T08:59:42.875Z,4.30
2019-03-24T09:02:11.638Z,4.10
2019-03-24T09:04:40.549Z,3.33
2019-03-24T09:07:09.420Z,4.23
2019-03-24T09:09:38.219Z,3.20
2019-03-24T09:12:07.132Z,4.20
2019-03-24T09:14:35.949Z,3.60
2019-03-24T09:17:04.741Z,3.67
2019-03-24T09:19:34.403Z,4.67
2019-03-24T09:22:03.196Z,4.00
2019-03-24T09:24:31.974Z,3.40
2019-03-24T09:27:00.892Z,3.60
2019-03-24T09:29:29.627Z,2.73
2019-03-24T09:31:58.496Z,3.63
2019-03-24T09:34:27.325Z,3.37
2019-03-24T09:36:56.143Z,3.47
2019-03-24T09:39:24.908Z,3.90
2019-03-24T09:41:53.796Z,3.73
2019-03-24T09:44:22.637Z,3.67
2019-03-24T09:46:51.389Z,3.20
2019-03-24T09:49:20.285Z,2.80
2019-03-24T09:51:49.157Z,3.57
2019-03-24T09:54:17.973Z,3.80
2019-03-24T09:56:46.840Z,3.00
2019-03-24T09:59:15.708Z,2.80
2019-03-24T10:01:44.538Z,2.87
2019-03-24T10:04:13.419Z,2.83
2019-03-24T10:06:42.276Z,2.43
2019-03-24T10:09:11.120Z,2.83
2019-03-24T10:11:40.003Z,3.23
2019-03-24T10:14:08.772Z,3.80
2019-03-24T10:16:37.598Z,2.90
2019-03-24T10:19:13.905Z,3.33
2019-03-24T10:21:37.140Z,2.57
2019-03-24T10:24:07.899Z,3.20
2019-03-24T10:26:36.515Z,2.70
2019-03-24T10:29:05.341Z,3.10
2019-03-24T10:31:34.195Z,3.37
2019-03-24T10:34:03.076Z,2.60
2019-03-24T10:36:31.853Z,2.63
2019-03-24T10:39:00.628Z,1.90
2019-03-24T10:41:29.835Z,2.37
2019-03-24T10:43:58.669Z,1.97
2019-03-24T10:46:27.555Z,2.37
2019-03-24T10:48:56.420Z,2.40
2019-03-24T10:51:25.258Z,2.83
2019-03-24T10:53:54.061Z,2.73
2019-03-24T10:56:22.995Z,2.73
2019-03-24T10:58:52.756Z,2.00
2019-03-24T11:01:21.594Z,2.10
2019-03-24T11:03:50.501Z,1.80
2019-03-24T11:06:19.357Z,2.37
2019-03-24T11:08:48.221Z,2.07
2019-03-24T11:11:17.121Z,2.63
2019-03-24T11:13:45.962Z,2.57
2019-03-24T11:16:14.760Z,3.07
2019-03-24T11:18:43.620Z,1.80
2019-03-24T11:21:12.437Z,2.63
2019-03-24T11:23:41.667Z,2.67
2019-03-24T11:26:10.516Z,2.23
2019-03-24T11:28:39.324Z,2.57
2019-03-24T11:31:08.173Z,2.43
2019-03-24T11:33:37.066Z,2.20
2019-03-24T11:36:06.005Z,2.30
2019-03-24T11:38:34.767Z,2.27
2019-03-24T11:41:03.580Z,1.83
2019-03-24T11:43:32.395Z,2.00
2019-03-24T11:46:01.247Z,2.43
2019-03-24T11:48:30.125Z,1.80
2019-03-24T11:50:58.964Z,2.50
2019-03-24T11:53:27.802Z,2.67
2019-03-24T11:55:56.698Z,2.80
2019-03-24T11:58:25.557Z,2.63
2019-03-24T12:00:54.396Z,2.20
2019-03-24T12:03:25.320Z,2.23
2019-03-24T12:05:53.724Z,2.00
2019-03-24T12:08:22.500Z,2.47
2019-03-24T12:10:51.532Z,2.03
2019-03-24T12:13:20.316Z,2.10
2019-03-24T12:15:49.188Z,2.00
2019-03-24T12:18:18.045Z,2.20
2019-03-24T12:20:46.840Z,1.90
2019-03-24T12:23:15.702Z,2.13
2019-03-24T12:25:44.933Z,2.27
2019-03-24T12:28:13.781Z,2.13
2019-03-24T12:30:42.643Z,1.90
2019-03-24T12:33:11.558Z,2.30
2019-03-24T12:35:40.431Z,2.60
2019-03-24T12:38:09.363Z,1.83
2019-03-24T12:40:38.227Z,2.13
2019-03-24T12:43:06.974Z,2.00
2019-03-24T12:45:35.830Z,2.03
2019-03-24T12:48:04.748Z,1.53
2019-03-24T12:50:33.587Z,2.10
2019-03-24T12:53:02.437Z,1.87
2019-03-24T12:55:31.293Z,1.90
2019-03-24T12:58:00.117Z,1.93
2019-03-24T13:00:32.042Z,1.93
2019-03-24T13:03:00.942Z,2.30
2019-03-24T13:05:31.915Z,2.30
2019-03-24T13:08:12.605Z,1.67
2019-03-24T13:10:42.323Z,1.77
2019-03-24T13:13:11.957Z,1.57
2019-03-24T13:15:41.237Z,1.77
2019-03-24T13:18:10.091Z,1.47
2019-03-24T13:20:39.011Z,1.80
2019-03-24T13:23:07.892Z,1.73
2019-03-24T13:25:36.786Z,1.73
2019-03-24T13:28:07.824Z,2.13
2019-03-24T13:30:36.648Z,2.27
2019-03-24T13:33:05.460Z,1.70
2019-03-24T13:35:34.206Z,1.80
2019-03-24T13:38:03.032Z,2.33
2019-03-24T13:40:32.050Z,2.27
2019-03-24T13:43:00.829Z,1.40
2019-03-24T13:45:30.004Z,2.00
2019-03-24T13:47:58.772Z,1.43
2019-03-24T13:50:31.669Z,1.67
2019-03-24T13:52:58.394Z,1.83
2019-03-24T13:55:27.284Z,2.07
2019-03-24T13:57:56.115Z,1.73
2019-03-24T14:00:25.030Z,1.73
2019-03-24T14:02:53.876Z,1.27
2019-03-24T14:05:22.660Z,2.13
2019-03-24T14:07:51.575Z,1.83
2019-03-24T14:10:20.420Z,1.47
2019-03-24T14:12:49.323Z,1.43
2019-03-24T14:15:18.244Z,1.17
2019-03-24T14:17:47.076Z,1.90
2019-03-24T14:20:15.997Z,2.07
2019-03-24T14:22:44.879Z,1.53
2019-03-24T14:25:14.070Z,2.10
2019-03-24T14:27:42.885Z,1.47
2019-03-24T14:30:12.413Z,1.67
2019-03-24T14:32:41.259Z,1.37
2019-03-24T14:35:10.069Z,1.50
2019-03-24T14:37:38.963Z,2.13
2019-03-24T14:40:08.796Z,1.13
2019-03-24T14:42:37.651Z,2.03
2019-03-24T14:45:09.741Z,1.70
2019-03-24T14:47:38.491Z,1.67
2019-03-24T14:50:09.061Z,1.90
2019-03-24T14:52:37.867Z,1.80
2019-03-24T14:55:06.837Z,2.13
2019-03-24T14:57:35.628Z,1.33
2019-03-24T15:00:06.116Z,1.83
2019-03-24T15:02:34.931Z,1.53
2019-03-24T15:05:05.059Z,2.00
2019-03-24T15:07:33.934Z,1.53
2019-03-24T15:10:02.877Z,1.40
2019-03-24T15:12:31.698Z,1.37
2019-03-24T15:15:00.591Z,1.77
2019-03-24T15:17:29.372Z,1.43
2019-03-24T15:19:58.243Z,0.80
2019-03-24T15:22:27.178Z,1.70
2019-03-24T15:24:55.883Z,1.40
2019-03-24T15:27:24.661Z,1.40
2019-03-24T15:29:53.548Z,1.80
2019-03-24T15:32:22.507Z,1.67
2019-03-24T15:34:51.348Z,2.50
2019-03-24T15:37:20.260Z,5.00
2019-03-24T15:39:49.012Z,1.63
2019-03-24T15:42:17.883Z,3.47
2019-03-24T15:44:46.793Z,4.30
2019-03-24T15:47:15.555Z,4.33
2019-03-24T15:49:44.372Z,2.00
2019-03-24T15:52:13.466Z,3.13
2019-03-24T15:54:42.284Z,2.27
2019-03-24T15:57:11.130Z,3.60
2019-03-24T15:59:41.508Z,9.87
2019-03-24T16:02:10.315Z,5.33
2019-03-24T16:04:39.077Z,2.07
2019-03-24T16:07:07.942Z,1.70
2019-03-24T16:09:36.758Z,4.33
2019-03-24T16:12:05.571Z,11.37
2019-03-24T16:14:34.438Z,3.53
2019-03-24T16:17:03.204Z,2.00
2019-03-24T16:19:31.971Z,2.20
2019-03-24T16:22:00.777Z,1.87
2019-03-24T16:24:29.605Z,1.50
2019-03-24T16:26:58.428Z,3.67
2019-03-24T16:29:27.261Z,2.27
2019-03-24T16:31:56.099Z,1.27
2019-03-24T16:34:24.988Z,2.07
2019-03-24T16:36:53.876Z,1.80
2019-03-24T16:39:22.747Z,2.50
2019-03-24T16:41:51.572Z,3.20
2019-03-24T16:44:20.468Z,2.67
2019-03-24T16:46:49.316Z,3.27
2019-03-24T16:49:18.114Z,2.17
2019-03-24T16:51:46.909Z,5.47
2019-03-24T16:54:15.924Z,4.53
2019-03-24T16:56:44.735Z,2.97
2019-03-24T16:59:13.636Z,2.70
2019-03-24T17:01:42.526Z,1.87
2019-03-24T17:04:11.412Z,1.60
2019-03-24T17:06:40.300Z,1.70
2019-03-24T17:09:09.114Z,2.13
2019-03-24T17:11:37.996Z,1.87
2019-03-24T17:14:06.956Z,1.83
2019-03-24T17:16:35.869Z,1.37
2019-03-24T17:19:04.675Z,1.30
2019-03-24T17:21:33.725Z,1.80
2019-03-24T17:24:02.600Z,1.70
2019-03-24T17:26:31.464Z,1.47
2019-03-24T17:29:00.341Z,1.63
2019-03-24T17:31:29.118Z,2.53
2019-03-24T17:33:57.996Z,2.80
2019-03-24T17:36:27.643Z,2.67
2019-03-24T17:38:56.452Z,2.00
2019-03-24T17:41:25.337Z,2.10
2019-03-24T17:44:02.779Z,1.77
2019-03-24T17:46:24.860Z,1.60
2019-03-24T17:48:53.687Z,1.77
2019-03-24T17:51:22.763Z,1.57
2019-03-24T17:53:51.796Z,2.10
2019-03-24T17:56:21.285Z,2.03
2019-03-24T17:58:50.164Z,1.30
2019-03-24T18:01:19.026Z,1.97
2019-03-24T18:03:47.852Z,2.53
2019-03-24T18:06:16.676Z,1.43
2019-03-24T18:08:46.461Z,1.83
2019-03-24T18:11:15.466Z,2.40
2019-03-24T18:13:44.366Z,2.43
2019-03-24T18:16:13.197Z,1.90
2019-03-24T18:18:43.544Z,2.50
2019-03-24T18:21:12.379Z,2.17
2019-03-24T18:23:41.300Z,2.10
2019-03-24T18:26:10.156Z,2.57
2019-03-24T18:28:39.069Z,1.90
2019-03-24T18:31:07.915Z,2.37
2019-03-24T18:33:36.789Z,2.67
2019-03-24T18:36:05.941Z,2.80
2019-03-24T18:38:34.740Z,2.63
2019-03-24T18:41:03.555Z,2.67
2019-03-24T18:43:32.396Z,3.03
2019-03-24T18:46:01.205Z,3.77
2019-03-24T18:48:30.031Z,4.33
2019-03-24T18:50:58.908Z,3.87
2019-03-24T18:53:27.750Z,4.17
2019-03-24T18:55:56.573Z,3.77
2019-03-24T18:58:25.468Z,4.17
2019-03-24T19:00:54.282Z,3.73
2019-03-24T19:03:23.127Z,2.77
2019-03-24T19:05:52.000Z,2.70
2019-03-24T19:08:20.819Z,2.30
2019-03-24T19:10:49.652Z,2.40
2019-03-24T19:13:18.556Z,2.00
2019-03-24T19:15:47.375Z,2.20
2019-03-24T19:18:17.714Z,2.53
2019-03-24T19:20:46.612Z,2.37
2019-03-24T19:23:15.444Z,2.87
2019-03-24T19:25:44.217Z,3.30
2019-03-24T19:28:13.115Z,2.87
2019-03-24T19:30:42.973Z,2.90
2019-03-24T19:33:11.788Z,2.33
2019-03-24T19:35:40.669Z,2.50
2019-03-24T19:38:09.525Z,2.80
2019-03-24T19:40:38.364Z,2.47
2019-03-24T19:43:07.228Z,2.47
2019-03-24T19:45:36.021Z,2.30
2019-03-24T19:48:05.066Z,1.70
2019-03-24T19:50:33.958Z,2.03
2019-03-24T19:53:02.828Z,1.90
2019-03-24T19:55:31.709Z,1.97
2019-03-24T19:58:00.579Z,2.57
2019-03-24T20:00:29.414Z,2.10
2019-03-24T20:02:58.269Z,2.30
2019-03-24T20:05:27.155Z,2.07
2019-03-24T20:07:55.978Z,1.80
2019-03-24T20:10:24.812Z,2.00
2019-03-24T20:12:53.717Z,2.63
2019-03-24T20:15:22.540Z,1.83
2019-03-24T20:17:51.486Z,2.20
2019-03-24T20:20:20.405Z,2.13
2019-03-24T20:22:56.548Z,2.27
2019-03-24T20:25:20.731Z,3.37
2019-03-24T20:27:49.604Z,2.20
2019-03-24T20:30:19.749Z,1.80
2019-03-24T20:32:48.604Z,2.43
2019-03-24T20:35:17.458Z,2.57
2019-03-24T20:37:46.236Z,3.23
2019-03-24T20:40:15.380Z,2.57
2019-03-24T20:42:44.206Z,2.33
2019-03-24T20:45:13.044Z,3.07
2019-03-24T20:47:41.795Z,2.20
2019-03-24T20:50:11.061Z,2.13
2019-03-24T20:52:39.892Z,2.23
2019-03-24T20:55:09.210Z,2.07
2019-03-24T20:57:38.076Z,3.00
2019-03-24T21:00:12.004Z,2.37
2019-03-24T21:02:40.758Z,3.33
2019-03-24T21:05:11.026Z,2.77
2019-03-24T21:07:40.118Z,2.67
2019-03-24T21:10:08.932Z,1.93
2019-03-24T21:12:37.764Z,2.03
2019-03-24T21:15:07.927Z,2.40
2019-03-24T21:17:36.774Z,2.50
2019-03-24T21:20:07.774Z,2.10
2019-03-24T21:22:36.588Z,1.97
2019-03-24T21:25:07.218Z,2.10
2019-03-24T21:27:36.108Z,1.77
2019-03-24T21:30:07.844Z,2.37
2019-03-24T21:32:36.676Z,2.40
2019-03-24T21:35:06.778Z,2.27
2019-03-24T21:37:35.532Z,2.37
2019-03-24T21:40:06.389Z,2.43
2019-03-24T21:42:35.364Z,1.97
2019-03-24T21:45:07.965Z,2.43
2019-03-24T21:47:36.784Z,3.20
2019-03-24T21:50:09.277Z,2.10
2019-03-24T21:52:38.011Z,2.43
2019-03-24T21:55:06.886Z,2.60
2019-03-24T21:57:35.771Z,2.20
2019-03-24T22:00:07.355Z,2.20
2019-03-24T22:02:36.162Z,2.50
2019-03-24T22:05:05.934Z,2.90
2019-03-24T22:07:34.804Z,2.23
2019-03-24T22:10:05.829Z,2.67
2019-03-24T22:12:34.767Z,3.00
2019-03-24T22:15:03.732Z,3.00
2019-03-24T22:17:32.500Z,2.47
2019-03-24T22:20:01.340Z,3.27
2019-03-24T22:22:30.170Z,2.87
2019-03-24T22:24:58.990Z,2.60
2019-03-24T22:27:27.869Z,2.63
2019-03-24T22:29:56.676Z,3.10
2019-03-24T22:32:25.515Z,3.20
2019-03-24T22:34:54.339Z,2.20
2019-03-24T22:37:23.076Z,3.40
2019-03-24T22:39:51.812Z,2.40
2019-03-24T22:42:20.595Z,2.67
2019-03-24T22:44:49.396Z,2.67
2019-03-24T22:47:19.060Z,2.83
2019-03-24T22:49:47.907Z,2.33
2019-03-24T22:52:16.738Z,3.23
2019-03-24T22:54:45.492Z,2.50
2019-03-24T22:57:15.820Z,2.53
2019-03-24T22:59:44.630Z,3.17
2019-03-24T23:02:13.443Z,2.63
2019-03-24T23:04:42.299Z,3.30
2019-03-24T23:07:11.116Z,2.97
2019-03-24T23:09:39.924Z,2.93
2019-03-24T23:12:08.707Z,3.33
2019-03-24T23:14:37.514Z,3.17
2019-03-24T23:17:06.343Z,3.20
2019-03-24T23:19:35.176Z,2.30
2019-03-24T23:22:03.911Z,2.47
2019-03-24T23:24:32.730Z,2.83
2019-03-24T23:27:01.515Z,3.37
2019-03-24T23:29:30.365Z,2.83
2019-03-24T23:31:59.163Z,3.73
2019-03-24T23:34:27.932Z,3.17
2019-03-24T23:36:56.772Z,4.13
2019-03-24T23:39:25.484Z,3.57
2019-03-24T23:41:54.284Z,3.63
2019-03-24T23:44:23.090Z,4.60
2019-03-24T23:46:51.924Z,3.70
2019-03-24T23:49:20.763Z,3.57
2019-03-24T23:51:49.524Z,3.80
2019-03-24T23:54:26.553Z,2.80
2019-03-24T23:56:48.901Z,2.77
2019-03-24T23:59:17.646Z,3.13
